Time;durP1;ratioP1;P1;durP2;ratioP2;P2;SDS_P1;SDS_P2;PMS_P1;PMS_P2;Temp;Humidity;BMP_temperature;BMP_pressure;BME280_temperature;BME280_humidity;BME280_pressure;Samples;Min_cycle;Max_cycle;Signal;HPM_P1;HPM_P2
2022/08/24 00:01:00;;;;;;;42.15;37.58;;;20.50;99.90;;;;;;5013232;28;20042;-81
2022/08/24 00:03:25;;;;;;;44.92;37.53;;;20.50;99.90;;;;;;5013196;28;20095;-81
2022/08/24 00:05:52;;;;;;;50.38;38.65;;;20.50;99.90;;;;;;4996748;28;20056;-81
2022/08/24 00:08:18;;;;;;;39.03;34.22;;;20.50;99.90;;;;;;5012723;28;20042;-81
2022/08/24 00:10:45;;;;;;;40.22;36.00;;;20.50;99.90;;;;;;5013020;28;20526;-81
2022/08/24 00:13:12;;;;;;;38.45;34.22;;;20.40;99.90;;;;;;5012714;28;20046;-81
2022/08/24 00:15:38;;;;;;;37.22;33.17;;;20.30;99.90;;;;;;4996677;28;20073;-81
2022/08/24 00:18:04;;;;;;;41.35;36.33;;;20.30;99.90;;;;;;5012565;28;20049;-81
2022/08/24 00:20:31;;;;;;;39.35;35.08;;;20.30;99.90;;;;;;4996384;28;20085;-81
2022/08/24 00:22:56;;;;;;;;;;;20.30;99.90;;;;;;5013474;28;20042;-81
2022/08/24 00:25:22;;;;;;;40.40;35.60;;;20.40;99.90;;;;;;5012718;28;20376;-81
2022/08/24 00:27:48;;;;;;;38.63;34.28;;;20.40;99.90;;;;;;5012553;28;20050;-81
2022/08/24 00:30:16;;;;;;;36.88;32.90;;;20.40;99.90;;;;;;5012311;28;20072;-81
2022/08/24 00:32:44;;;;;;;35.88;32.22;;;20.40;99.90;;;;;;4996274;28;20053;-81
2022/08/24 00:35:11;;;;;;;37.33;33.33;;;20.30;99.90;;;;;;5012694;28;20053;-81
2022/08/24 00:37:38;;;;;;;37.38;33.55;;;20.30;99.90;;;;;;5012381;28;20034;-81
2022/08/24 00:40:10;;;;;;;41.10;36.85;;;20.30;99.90;;;;;;5012230;28;20042;-81
2022/08/24 00:42:37;;;;;;;37.97;33.88;;;20.30;99.90;;;;;;4996128;28;20064;-81
2022/08/24 00:45:05;;;;;;;37.05;33.20;;;20.20;99.90;;;;;;5012352;28;20121;-81
2022/08/24 00:47:42;;;;;;;39.38;35.22;;;20.10;99.90;;;;;;5012723;28;20502;-81
2022/08/24 00:50:13;;;;;;;33.28;30.08;;;20.10;99.90;;;;;;5012072;28;20095;-81
2022/08/24 00:52:43;;;;;;;26.75;23.95;;;20.00;99.90;;;;;;5012238;28;20049;-81
2022/08/24 00:55:19;;;;;;;22.67;20.58;;;19.80;99.90;;;;;;5012072;28;20085;-81
2022/08/24 00:57:50;;;;;;;22.05;19.95;;;19.70;99.90;;;;;;5012294;28;20077;-81
2022/08/24 01:00:21;;;;;;;22.15;20.00;;;19.50;99.90;;;;;;4995806;28;20528;-81
2022/08/24 01:02:52;;;;;;;25.08;22.73;;;19.50;99.90;;;;;;5012119;28;20042;-81
2022/08/24 01:05:18;;;;;;;21.67;19.48;;;19.40;99.90;;;;;;5012021;28;20061;-81
2022/08/24 01:07:48;;;;;;;;;;;19.30;99.90;;;;;;5012404;28;20169;-81
2022/08/24 01:10:17;;;;;;;34.20;20.30;;;19.20;99.90;;;;;;5011779;28;19972;-81
2022/08/24 01:12:47;;;;;;;20.00;18.10;;;19.10;99.90;;;;;;5012151;28;20501;-81
2022/08/24 01:15:14;;;;;;;33.13;19.40;;;18.90;99.90;;;;;;4995467;28;20042;-81
2022/08/24 01:20:25;;;;;;;135.25;22.13;;;18.70;99.90;;;;;;5011709;28;20053;-81
2022/08/24 01:23:06;;;;;;;31.77;19.50;;;18.60;99.90;;;;;;5011957;28;20054;-81
2022/08/24 01:25:34;;;;;;;37.20;19.17;;;18.60;99.90;;;;;;5011467;28;20048;-81
2022/08/24 01:28:05;;;;;;;19.00;17.30;;;18.60;99.90;;;;;;5011731;28;20482;-81
2022/08/24 01:30:31;;;;;;;20.98;19.08;;;18.60;99.90;;;;;;5011490;28;20077;-81
2022/08/24 01:33:00;;;;;;;73.32;21.20;;;18.60;99.90;;;;;;5011433;28;20046;-81
2022/08/24 01:35:26;;;;;;;57.15;20.60;;;18.60;99.90;;;;;;5011777;28;20038;-81
2022/08/24 01:37:54;;;;;;;25.75;20.08;;;18.60;99.90;;;;;;5011656;28;20030;-81
2022/08/24 01:40:22;;;;;;;22.17;20.05;;;18.60;99.90;;;;;;5011475;28;20509;-81
2022/08/24 01:42:51;;;;;;;37.10;21.30;;;18.60;99.90;;;;;;5010743;28;20045;-81
2022/08/24 01:45:17;;;;;;;67.38;22.00;;;18.60;99.90;;;;;;5011381;28;20089;-81
2022/08/24 01:47:43;;;;;;;44.90;21.70;;;18.60;99.90;;;;;;5011226;28;20050;-81
2022/08/24 01:50:09;;;;;;;23.67;21.08;;;18.60;99.90;;;;;;5011325;28;20057;-81
2022/08/24 01:52:37;;;;;;;81.07;22.10;;;18.60;99.90;;;;;;5011163;28;20053;-81
2022/08/24 01:55:09;;;;;;;60.42;21.50;;;18.60;99.90;;;;;;5010938;28;20049;-81
2022/08/24 01:57:35;;;;;;;76.78;23.95;;;18.60;99.90;;;;;;5011301;28;20096;-81
2022/08/24 02:00:05;;;;;;;21.42;19.33;;;18.60;99.90;;;;;;5011119;28;20046;-81
2022/08/24 02:02:31;;;;;;;22.23;20.20;;;18.70;99.90;;;;;;5011060;28;20052;-81
2022/08/24 02:04:57;;;;;;;18.50;16.77;;;18.70;99.90;;;;;;4994943;28;20116;-81
2022/08/24 02:07:23;;;;;;;20.02;18.10;;;18.70;99.90;;;;;;5010979;28;20057;-81
2022/08/24 02:09:49;;;;;;;20.88;18.85;;;18.80;99.90;;;;;;5011353;28;20153;-81
2022/08/24 02:12:16;;;;;;;22.25;20.17;;;18.80;99.90;;;;;;5011104;28;20034;-81
2022/08/24 02:14:41;;;;;;;22.95;20.73;;;18.90;99.90;;;;;;5011063;28;20061;-81
2022/08/24 02:17:08;;;;;;;21.67;19.67;;;18.90;99.90;;;;;;5010913;28;20041;-81
2022/08/24 02:19:34;;;;;;;20.65;18.65;;;18.90;99.90;;;;;;5011232;28;20053;-81
2022/08/24 02:22:00;;;;;;;19.55;17.75;;;19.00;99.90;;;;;;4994497;28;20046;-81
2022/08/24 02:24:27;;;;;;;20.00;18.10;;;19.00;99.90;;;;;;5010968;28;20382;-81
2022/08/24 02:26:54;;;;;;;19.13;17.23;;;19.00;99.90;;;;;;4994892;28;20489;-81
2022/08/24 02:29:20;;;;;;;19.13;17.38;;;19.10;99.90;;;;;;5010892;28;20122;-80
2022/08/24 02:31:45;;;;;;;18.17;16.58;;;19.10;99.90;;;;;;5010814;28;20096;-81
2022/08/24 02:34:11;;;;;;;21.77;19.77;;;19.10;99.90;;;;;;4994439;28;20497;-81
2022/08/24 02:36:38;;;;;;;21.27;19.10;;;19.10;99.90;;;;;;5011461;28;20034;-82
2022/08/24 02:39:05;;;;;;;21.45;19.35;;;19.10;99.90;;;;;;4994382;28;20060;-82
2022/08/24 02:41:31;;;;;;;20.27;18.27;;;19.00;99.90;;;;;;4994755;28;20497;-82
2022/08/24 02:43:58;;;;;;;19.83;17.95;;;19.00;99.90;;;;;;5011098;28;20041;-82
2022/08/24 02:46:27;;;;;;;18.50;16.75;;;19.00;99.90;;;;;;5011237;28;20034;-82
2022/08/24 02:48:53;;;;;;;14.70;13.27;;;19.00;99.90;;;;;;5027368;28;20117;-82
2022/08/24 02:51:22;;;;;;;13.18;11.98;;;18.90;99.90;;;;;;5010482;28;20124;-82
2022/08/24 02:53:48;;;;;;;15.50;14.18;;;18.90;99.90;;;;;;5011081;28;20042;-82
2022/08/24 02:56:14;;;;;;;;;;;18.80;99.90;;;;;;5014569;28;20084;-81
2022/08/24 02:58:42;;;;;;;15.63;14.13;;;18.70;99.90;;;;;;4998096;28;20432;-82
2022/08/24 03:01:09;;;;;;;15.65;14.15;;;18.70;99.90;;;;;;4998477;28;20049;-81
2022/08/24 03:03:34;;;;;;;15.02;13.63;;;18.70;99.90;;;;;;5014194;28;20042;-82
2022/08/24 03:06:00;;;;;;;18.23;16.48;;;18.70;99.90;;;;;;5014360;28;20119;-81
2022/08/24 03:08:26;;;;;;;17.88;15.95;;;18.70;99.90;;;;;;5014379;28;20053;-81
2022/08/24 03:10:52;;;;;;;16.77;15.20;;;18.70;99.90;;;;;;5014158;28;20493;-82
2022/08/24 03:13:18;;;;;;;17.90;16.20;;;18.70;99.90;;;;;;5013696;28;20519;-82
2022/08/24 03:15:45;;;;;;;15.63;14.00;;;18.70;99.90;;;;;;5014248;28;20073;-82
2022/08/24 03:18:11;;;;;;;16.52;14.93;;;18.60;99.90;;;;;;5014041;28;20041;-82
2022/08/24 03:20:38;;;;;;;16.85;15.07;;;18.50;99.90;;;;;;5014289;28;20396;-82
2022/08/24 03:23:04;;;;;;;16.10;14.38;;;18.40;99.90;;;;;;5013664;28;20096;-82
2022/08/24 03:25:30;;;;;;;15.98;14.50;;;18.40;99.90;;;;;;5013848;28;20133;-81
2022/08/24 03:27:56;;;;;;;16.05;14.55;;;18.30;99.90;;;;;;5013937;28;20558;-81
2022/08/24 03:30:23;;;;;;;16.15;14.65;;;18.30;99.90;;;;;;4997431;28;20046;-82
2022/08/24 03:32:49;;;;;;;15.85;14.43;;;18.30;99.90;;;;;;5013582;28;20453;-82
2022/08/24 03:35:15;;;;;;;;;;;18.30;99.90;;;;;;5014110;28;20401;-82
2022/08/24 03:37:41;;;;;;;17.73;16.02;;;18.20;99.90;;;;;;5013917;28;19928;-82
2022/08/24 03:40:09;;;;;;;17.20;15.60;;;18.20;99.90;;;;;;5013635;28;20366;-82
2022/08/24 03:42:34;;;;;;;17.35;15.68;;;18.20;99.90;;;;;;5013752;28;20401;-82
2022/08/24 03:45:00;;;;;;;17.33;15.63;;;18.30;99.90;;;;;;5013574;28;20152;-81
2022/08/24 03:47:26;;;;;;;19.27;17.35;;;18.30;99.90;;;;;;5013491;28;20490;-81
2022/08/24 03:49:52;;;;;;;17.13;15.40;;;18.30;99.90;;;;;;5013538;28;20378;-81
2022/08/24 03:52:18;;;;;;;16.70;15.02;;;18.30;99.90;;;;;;5013077;28;20053;-81
2022/08/24 03:54:43;;;;;;;16.75;15.15;;;18.30;99.90;;;;;;5013040;28;20046;-81
2022/08/24 03:57:09;;;;;;;20.02;17.98;;;18.40;99.90;;;;;;5013137;28;20405;-81
2022/08/24 03:59:35;;;;;;;20.65;18.45;;;18.40;99.90;;;;;;5013380;28;20062;-82
2022/08/24 04:02:00;;;;;;;21.63;19.33;;;18.40;99.90;;;;;;5013070;28;20485;-81
2022/08/24 04:04:28;;;;;;;21.55;19.17;;;18.40;99.90;;;;;;5013027;28;20120;-81
2022/08/24 04:06:53;;;;;;;21.77;19.55;;;18.40;99.90;;;;;;4997372;28;20056;-82
2022/08/24 04:09:19;;;;;;;24.77;22.23;;;18.40;99.90;;;;;;5013240;28;20140;-81
2022/08/24 04:11:45;;;;;;;24.63;21.15;;;18.40;99.90;;;;;;5013113;28;20053;-82
2022/08/24 04:14:13;;;;;;;23.60;21.15;;;18.40;99.90;;;;;;5013191;28;20038;-81
2022/08/24 04:16:38;;;;;;;23.20;20.55;;;18.40;99.90;;;;;;5012942;28;20041;-81
2022/08/24 04:19:04;;;;;;;17.77;16.00;;;18.30;99.90;;;;;;4996635;28;20046;-81
2022/08/24 04:21:33;;;;;;;16.35;14.75;;;18.20;99.90;;;;;;4996804;28;20103;-82
2022/08/24 04:24:00;;;;;;;17.65;16.08;;;18.00;99.90;;;;;;5012858;28;20069;-81
2022/08/24 04:26:28;;;;;;;17.20;15.40;;;17.90;99.90;;;;;;5012727;28;20034;-81
2022/08/24 04:28:54;;;;;;;17.83;16.05;;;17.80;99.90;;;;;;5012704;28;20046;-82
2022/08/24 04:31:21;;;;;;;27.63;22.35;;;17.70;99.90;;;;;;5012480;28;20052;-81
2022/08/24 04:33:50;;;;;;;22.50;20.10;;;17.60;99.90;;;;;;5012582;28;20042;-81
2022/08/24 04:36:18;;;;;;;16.40;14.82;;;17.60;99.90;;;;;;5012337;28;20041;-81
2022/08/24 04:38:45;;;;;;;152.32;21.90;;;17.50;99.90;;;;;;4996448;28;20046;-81
2022/08/24 04:41:12;;;;;;;18.70;17.05;;;17.40;99.90;;;;;;5012701;28;20052;-82
2022/08/24 04:43:41;;;;;;;19.08;17.38;;;17.40;99.90;;;;;;5012120;28;20052;-81
2022/08/24 04:46:08;;;;;;;19.48;17.67;;;17.40;99.90;;;;;;5012690;28;20379;-81
2022/08/24 04:48:34;;;;;;;19.77;17.98;;;17.40;99.90;;;;;;5012301;28;20042;-81
2022/08/24 04:51:02;;;;;;;20.25;18.35;;;17.50;99.90;;;;;;5012818;28;20044;-82
2022/08/24 04:53:29;;;;;;;21.80;19.65;;;17.50;99.90;;;;;;5012188;28;20042;-82
2022/08/24 04:55:54;;;;;;;;;;;17.60;99.90;;;;;;5012738;28;20054;-81
2022/08/24 04:58:20;;;;;;;24.52;22.23;;;17.70;99.90;;;;;;5011918;28;19924;-81
2022/08/24 05:00:45;;;;;;;26.30;23.50;;;17.70;99.90;;;;;;5012234;28;20482;-81
2022/08/24 05:03:12;;;;;;;26.10;23.50;;;17.70;99.90;;;;;;5011895;28;20520;-81
2022/08/24 05:05:43;;;;;;;26.77;23.98;;;17.70;99.90;;;;;;5011979;28;20045;-82
2022/08/24 05:08:10;;;;;;;26.83;24.02;;;17.80;99.90;;;;;;5012110;28;20107;-81
2022/08/24 05:10:41;;;;;;;26.02;23.52;;;17.90;99.90;;;;;;4995627;28;20125;-81
2022/08/24 05:13:08;;;;;;;26.35;23.63;;;17.90;99.90;;;;;;5011641;28;20050;-82
2022/08/24 05:15:35;;;;;;;27.50;24.75;;;17.90;99.90;;;;;;5011834;28;20045;-81
2022/08/24 05:18:02;;;;;;;28.73;25.83;;;17.90;99.90;;;;;;5011339;28;20042;-82
2022/08/24 05:20:27;;;;;;;31.13;27.85;;;18.00;99.90;;;;;;5011736;28;20125;-81
2022/08/24 05:22:54;;;;;;;34.20;30.60;;;18.10;99.90;;;;;;5011772;28;20103;-82
2022/08/24 05:25:20;;;;;;;30.80;27.73;;;18.10;99.90;;;;;;5011739;28;20490;-82
2022/08/24 05:27:46;;;;;;;27.98;25.17;;;18.10;99.90;;;;;;5011629;28;20100;-82
2022/08/24 05:30:12;;;;;;;27.98;25.25;;;18.10;99.90;;;;;;5011516;28;20046;-81
2022/08/24 05:32:38;;;;;;;28.77;25.95;;;18.20;99.90;;;;;;5011592;28;20038;-81
2022/08/24 05:35:05;;;;;;;27.35;24.77;;;18.20;99.90;;;;;;5011860;28;20085;-82
2022/08/24 05:37:33;;;;;;;28.40;25.50;;;18.30;99.90;;;;;;5012084;28;20057;-81
2022/08/24 05:40:01;;;;;;;28.88;26.05;;;18.40;99.90;;;;;;4995781;28;20049;-81
2022/08/24 05:42:27;;;;;;;30.38;27.27;;;18.40;99.90;;;;;;5011348;28;20104;-82
2022/08/24 05:44:52;;;;;;;34.47;30.73;;;18.50;99.90;;;;;;5011353;28;20037;-82
2022/08/24 05:47:18;;;;;;;37.03;32.88;;;18.60;99.90;;;;;;5011303;28;20050;-82
2022/08/24 05:49:44;;;;;;;36.05;32.22;;;18.70;99.90;;;;;;4995195;28;20041;-82
2022/08/24 05:52:10;;;;;;;;;;;18.90;99.90;;;;;;5011700;28;20038;-81
2022/08/24 05:54:36;;;;;;;30.50;27.15;;;18.90;99.90;;;;;;5011388;28;19928;-81
2022/08/24 05:57:05;;;;;;;34.03;30.60;;;18.90;99.90;;;;;;5011322;28;20103;-81
2022/08/24 05:59:31;;;;;;;33.80;30.17;;;19.00;99.90;;;;;;5011261;28;20046;-82
2022/08/24 06:01:57;;;;;;;33.17;29.85;;;19.10;99.90;;;;;;5011269;28;20045;-82
2022/08/24 06:04:22;;;;;;;35.58;30.80;;;19.10;99.90;;;;;;5011061;28;20472;-81
2022/08/24 06:06:48;;;;;;;34.38;30.67;;;19.30;99.90;;;;;;5011049;28;20184;-82
2022/08/24 06:09:15;;;;;;;34.88;31.27;;;19.40;99.90;;;;;;4978478;28;20046;-82
2022/08/24 06:11:41;;;;;;;35.47;30.95;;;19.50;99.90;;;;;;5011020;28;20049;-82
2022/08/24 06:14:12;;;;;;;36.45;32.58;;;19.70;99.90;;;;;;5010997;28;20046;-82
2022/08/24 06:16:40;;;;;;;31.67;28.38;;;19.80;99.90;;;;;;5011219;28;20048;-82
2022/08/24 06:19:08;;;;;;;33.28;29.02;;;20.00;99.90;;;;;;5011112;28;20500;-82
2022/08/24 06:21:34;;;;;;;33.60;29.85;;;20.10;99.90;;;;;;5010997;28;20034;-82
2022/08/24 06:24:00;;;;;;;34.55;30.77;;;20.30;99.90;;;;;;5010857;28;20053;-82
2022/08/24 06:29:12;;;;;;;34.25;30.50;;;20.60;99.90;;;;;;5011399;28;20058;-82
2022/08/24 06:31:40;;;;;;;35.50;31.13;;;20.80;99.90;;;;;;4998362;28;20034;-81
2022/08/24 06:34:07;;;;;;;35.30;31.50;;;21.00;99.90;;;;;;4998700;28;20397;-82
2022/08/24 06:36:33;;;;;;;35.85;31.75;;;21.20;99.90;;;;;;5015109;28;20064;-82
2022/08/24 06:38:59;;;;;;;34.10;30.58;;;21.30;99.90;;;;;;5014786;28;20038;-82
2022/08/24 06:41:25;;;;;;;35.97;31.00;;;21.50;99.90;;;;;;5014535;28;20045;-82
2022/08/24 06:43:51;;;;;;;30.20;26.55;;;21.90;99.90;;;;;;5015118;28;20448;-82
2022/08/24 06:46:17;;;;;;;27.88;24.98;;;22.50;99.90;;;;;;5014413;28;20038;-82
2022/08/24 06:48:43;;;;;;;27.27;23.10;;;23.10;99.90;;;;;;5014466;28;20042;-82
2022/08/24 06:51:14;;;;;;;;;;;23.70;99.90;;;;;;5015237;28;20420;-82
2022/08/24 06:53:40;;;;;;;24.92;21.80;;;24.10;99.90;;;;;;5014555;28;20020;-82
2022/08/24 06:56:06;;;;;;;;;;;24.50;99.90;;;;;;5014796;28;20096;-82
2022/08/24 06:58:32;;;;;;;22.95;20.55;;;24.90;99.90;;;;;;5014397;28;19968;-82
2022/08/24 07:01:06;;;;;;;;;;;25.40;99.90;;;;;;5014675;28;20077;-82
2022/08/24 07:03:31;;;;;;;19.55;17.55;;;25.60;99.90;;;;;;4998228;28;19986;-82
2022/08/24 07:05:57;;;;;;;;;;;25.90;99.90;;;;;;5014900;28;20057;-82
2022/08/24 07:08:23;;;;;;;18.30;16.35;;;26.10;99.90;;;;;;5014268;28;19925;-82
2022/08/24 07:10:49;;;;;;;;;;;26.50;99.90;;;;;;5014509;28;20044;-82
2022/08/24 07:13:15;;;;;;;17.52;15.73;;;26.90;99.90;;;;;;5013837;28;19921;-82
2022/08/24 07:15:42;;;;;;;15.50;13.90;;;27.00;99.90;;;;;;5014168;28;20343;-82
2022/08/24 07:18:12;;;;;;;16.98;14.60;;;27.20;99.90;;;;;;5013911;28;20042;-82
2022/08/24 07:20:38;;;;;;;14.60;12.70;;;27.40;99.90;;;;;;5013991;28;20069;-82
2022/08/24 07:23:05;;;;;;;13.20;11.60;;;27.50;99.90;;;;;;5013870;28;20084;-82
2022/08/24 07:25:31;;;;;;;14.68;12.93;;;27.80;99.90;;;;;;5013805;28;20103;-82
2022/08/24 07:27:59;;;;;;;12.93;11.27;;;28.00;99.90;;;;;;5013858;28;20091;-83
2022/08/24 07:30:29;;;;;;;13.52;9.77;;;28.20;99.90;;;;;;5013660;28;20057;-82
2022/08/24 07:32:56;;;;;;;8.23;7.30;;;28.20;99.90;;;;;;5013775;28;20529;-82
2022/08/24 07:35:23;;;;;;;10.80;8.70;;;28.40;99.90;;;;;;5013568;28;20045;-83
2022/08/24 07:37:49;;;;;;;10.40;9.30;;;28.40;99.90;;;;;;4997677;28;20084;-83
2022/08/24 07:40:15;;;;;;;10.57;8.88;;;28.30;99.90;;;;;;5013170;28;20073;-82
2022/08/24 07:42:41;;;;;;;12.40;10.93;;;28.40;99.90;;;;;;4996646;28;20046;-83
2022/08/24 07:45:07;;;;;;;11.05;9.43;;;28.70;99.90;;;;;;5013398;28;20095;-83
2022/08/24 07:47:33;;;;;;;12.45;8.20;;;29.00;99.90;;;;;;5013811;28;20046;-83
2022/08/24 07:49:59;;;;;;;10.13;7.60;;;29.10;99.90;;;;;;5013527;28;20045;-83
2022/08/24 07:52:26;;;;;;;9.73;7.78;;;29.30;99.90;;;;;;4996692;28;20123;-83
2022/08/24 07:54:52;;;;;;;7.72;6.65;;;29.40;99.90;;;;;;4997414;28;20124;-83
2022/08/24 07:57:18;;;;;;;10.27;7.28;;;29.50;99.90;;;;;;5013312;28;20180;-83
2022/08/24 07:59:45;;;;;;;7.38;6.00;;;29.60;99.90;;;;;;5013692;28;20056;-83
2022/08/24 08:02:11;;;;;;;7.78;6.68;;;29.80;99.90;;;;;;5013290;28;20405;-83
2022/08/24 08:04:37;;;;;;;8.20;6.80;;;29.90;99.90;;;;;;5013156;28;20050;-83
2022/08/24 08:07:03;;;;;;;9.23;6.88;;;30.20;99.90;;;;;;5013133;28;20045;-83
2022/08/24 08:09:29;;;;;;;9.15;5.70;;;30.20;99.90;;;;;;5012889;28;20121;-84
2022/08/24 08:11:55;;;;;;;8.13;5.53;;;30.30;99.90;;;;;;5013100;28;20141;-83
2022/08/24 08:14:21;;;;;;;11.25;6.30;;;30.40;99.90;;;;;;5012785;28;20052;-84
2022/08/24 08:16:46;;;;;;;7.05;5.78;;;30.70;99.90;;;;;;5013104;28;20038;-81
2022/08/24 08:19:12;;;;;;;8.70;5.95;;;31.00;99.90;;;;;;5013185;28;20050;-82
2022/08/24 08:24:32;;;;;;;7.57;6.78;;;31.00;99.90;;;;;;5012568;28;20092;-82
2022/08/24 08:26:58;;;;;;;10.30;6.82;;;31.20;99.90;;;;;;5012446;28;20069;-82
2022/08/24 08:29:25;;;;;;;8.75;5.75;;;31.30;99.70;;;;;;5012244;28;20038;-81
2022/08/24 08:31:51;;;;;;;6.82;6.15;;;31.50;99.90;;;;;;5012402;28;20045;-82
2022/08/24 08:34:17;;;;;;;8.38;6.40;;;31.80;99.90;;;;;;5012630;28;20044;-82
2022/08/24 08:36:44;;;;;;;8.40;5.90;;;31.90;99.60;;;;;;5012438;28;20048;-82
2022/08/24 08:39:13;;;;;;;7.00;5.55;;;32.00;99.10;;;;;;5012148;28;20041;-81
2022/08/24 08:42:00;;;;;;;10.23;5.50;;;32.30;98.70;;;;;;5012465;28;20549;-82
2022/08/24 08:44:42;;;;;;;7.82;5.05;;;32.20;98.30;;;;;;5012124;28;20048;-82
2022/08/24 08:47:45;;;;;;;7.00;5.07;;;32.10;98.20;;;;;;5012385;28;20121;-82
2022/08/24 08:50:24;;;;;;;7.97;5.47;;;32.40;98.20;;;;;;5012122;28;20033;-82
2022/08/24 08:53:24;;;;;;;7.45;5.72;;;32.60;98.10;;;;;;5012116;28;20050;-82
2022/08/24 08:56:02;;;;;;;8.02;4.70;;;33.00;97.00;;;;;;5011913;28;20061;-82
2022/08/24 08:59:10;;;;;;;9.13;5.43;;;33.40;97.10;;;;;;5012290;28;20565;-82
2022/08/24 09:01:44;;;;;;;7.28;5.20;;;33.60;96.60;;;;;;5011992;28;20046;-82
2022/08/24 09:04:19;;;;;;;7.68;4.72;;;33.80;97.00;;;;;;5011764;28;20067;-81
2022/08/24 09:06:49;;;;;;;8.48;5.15;;;34.00;96.30;;;;;;5011936;28;20041;-82
2022/08/24 09:09:39;;;;;;;6.00;5.40;;;34.20;95.70;;;;;;5011730;28;20044;-82
2022/08/24 09:12:05;;;;;;;7.93;4.35;;;34.20;96.30;;;;;;5011905;28;20125;-82
2022/08/24 09:15:02;;;;;;;8.88;6.03;;;34.20;95.80;;;;;;5011685;28;20127;-82
2022/08/24 09:17:42;;;;;;;;;;;34.30;95.50;;;;;;5012058;28;20038;-82
2022/08/24 09:20:21;;;;;;;8.10;5.32;;;34.40;95.40;;;;;;5011538;28;19917;-82
2022/08/24 09:23:20;;;;;;;7.82;4.78;;;34.40;95.90;;;;;;5011858;28;20049;-82
2022/08/24 09:25:51;;;;;;;6.75;4.70;;;34.40;95.60;;;;;;4989169;28;20047;-83
2022/08/24 09:28:44;;;;;;;5.53;4.50;;;34.50;95.20;;;;;;5011744;28;20049;-82
2022/08/24 09:31:36;;;;;;;6.10;4.10;;;34.80;94.70;;;;;;5011323;28;20050;-82
2022/08/24 09:34:07;;;;;;;5.25;3.60;;;34.90;94.70;;;;;;5011525;28;20052;-82
2022/08/24 09:36:45;;;;;;;5.13;3.47;;;35.10;94.80;;;;;;5011325;28;20053;-83
2022/08/24 09:39:45;;;;;;;5.15;3.72;;;34.80;94.10;;;;;;5011342;28;20050;-82
2022/08/24 09:42:23;;;;;;;7.13;3.90;;;35.00;94.30;;;;;;5011229;28;20042;-82
2022/08/24 09:45:20;;;;;;;4.97;3.30;;;35.20;94.50;;;;;;5011696;28;20053;-83
2022/08/24 09:48:10;;;;;;;4.68;4.00;;;35.30;94.30;;;;;;5011339;28;20045;-83
2022/08/24 09:50:45;;;;;;;6.18;3.33;;;35.50;93.80;;;;;;5011294;28;20050;-82
2022/08/24 09:53:29;;;;;;;5.40;3.50;;;35.20;94.00;;;;;;5010957;28;20251;-83
2022/08/24 09:56:17;;;;;;;6.10;2.92;;;35.60;93.90;;;;;;5011091;28;20466;-83
2022/08/24 09:59:05;;;;;;;6.28;3.15;;;35.80;93.80;;;;;;5011284;28;20041;-83
2022/08/24 10:01:41;;;;;;;5.30;3.63;;;36.10;93.20;;;;;;5011147;28;20060;-83
2022/08/24 10:04:18;;;;;;;6.40;3.38;;;35.90;92.60;;;;;;5010485;28;20054;-83
2022/08/24 10:07:13;;;;;;;5.20;3.22;;;35.90;93.00;;;;;;5010853;28;20045;-82
2022/08/24 10:09:51;;;;;;;6.53;2.90;;;36.30;92.50;;;;;;5007999;28;20054;-83
2022/08/24 10:12:53;;;;;;;4.07;3.00;;;36.30;92.80;;;;;;5010817;28;20128;-83
2022/08/24 10:15:35;;;;;;;6.38;3.80;;;36.10;92.70;;;;;;5010702;28;20128;-83
2022/08/24 10:18:14;;;;;;;8.20;4.10;;;36.60;92.60;;;;;;5010940;28;20044;-83
2022/08/24 10:20:57;;;;;;;4.95;3.28;;;36.90;92.70;;;;;;5011035;28;20034;-84
2022/08/24 10:23:54;;;;;;;4.57;2.25;;;36.80;92.10;;;;;;5010737;28;20092;-83
2022/08/24 10:27:01;;;;;;;4.95;2.70;;;37.00;92.30;;;;;;5010742;28;20037;-83
2022/08/24 10:30:04;;;;;;;3.28;2.38;;;36.80;92.10;;;;;;5010707;28;20129;-84
2022/08/24 10:33:02;;;;;;;3.13;2.10;;;37.20;91.60;;;;;;5010637;28;20046;-83
2022/08/24 10:35:53;;;;;;;2.03;1.60;;;37.10;91.50;;;;;;5010647;28;20037;-83
2022/08/24 10:41:51;;;;;;;4.00;1.55;;;37.10;91.80;;;;;;5010731;28;20046;-83
2022/08/24 10:44:44;;;;;;;3.35;1.50;;;37.50;91.90;;;;;;5010877;28;20078;-83
2022/08/24 10:47:27;;;;;;;3.65;1.73;;;37.80;91.00;;;;;;4994442;28;20069;-83
2022/08/24 10:50:57;;;;;;;5.18;2.60;;;37.90;91.40;;;;;;5011311;28;20057;-88
2022/08/24 10:53:26;;;;;;;4.70;2.15;;;37.80;90.80;;;;;;4974823;28;20093;-85
2022/08/24 10:56:07;;;;;;;2.58;1.70;;;38.00;91.00;;;;;;4994292;28;20465;-85
2022/08/24 10:58:46;;;;;;;2.33;1.42;;;38.10;91.20;;;;;;5010595;28;20057;-85
2022/08/24 11:01:25;;;;;;;5.00;3.10;;;38.10;90.90;;;;;;5010477;28;20049;-85
2022/08/24 11:03:53;;;;;;;2.72;1.95;;;38.40;90.30;;;;;;5010617;28;20129;-85
2022/08/24 11:06:21;;;;;;;3.17;1.50;;;38.20;90.60;;;;;;5011604;28;20049;-85
2022/08/24 11:08:58;;;;;;;2.78;1.35;;;38.40;90.50;;;;;;5010606;28;20038;-85
2022/08/24 11:11:28;;;;;;;2.90;1.20;;;38.40;90.30;;;;;;5010778;28;20100;-85
2022/08/24 11:14:01;;;;;;;2.33;1.23;;;38.10;90.20;;;;;;4994062;28;20045;-85
2022/08/24 11:16:40;;;;;;;4.22;1.40;;;38.50;90.10;;;;;;5011425;28;20029;-85
2022/08/24 11:19:13;;;;;;;4.43;1.60;;;38.80;89.80;;;;;;5014372;28;20125;-83
2022/08/24 11:21:46;;;;;;;2.15;1.42;;;38.90;89.70;;;;;;5014372;28;20042;-85
2022/08/24 11:24:40;;;;;;;2.97;1.20;;;38.50;90.00;;;;;;5014003;28;20513;-85
2022/08/24 11:27:20;;;;;;;2.15;1.25;;;38.70;90.40;;;;;;4997794;28;20038;-85
2022/08/24 11:29:52;;;;;;;2.95;1.38;;;38.90;89.40;;;;;;5014000;28;20045;-85
2022/08/24 11:32:30;;;;;;;2.22;1.30;;;39.30;89.30;;;;;;5013673;28;20152;-85
2022/08/24 11:35:06;;;;;;;4.47;1.50;;;38.70;88.90;;;;;;5013974;28;20042;-86
2022/08/24 11:37:34;;;;;;;5.40;1.40;;;38.70;88.30;;;;;;5013595;28;20038;-85
2022/08/24 11:40:00;;;;;;;2.78;1.00;;;39.00;88.30;;;;;;5014096;28;20438;-85
2022/08/24 11:42:50;;;;;;;2.72;0.85;;;39.10;88.80;;;;;;5013839;28;20053;-85
2022/08/24 11:45:35;;;;;;;4.93;1.05;;;39.90;88.50;;;;;;5013480;28;20052;-85
2022/08/24 11:48:07;;;;;;;1.92;1.17;;;39.50;87.00;;;;;;5013952;28;20387;-85
2022/08/24 11:50:53;;;;;;;2.60;1.35;;;39.70;87.90;;;;;;5013317;28;20042;-85
2022/08/24 11:53:47;;;;;;;3.08;1.10;;;39.70;87.20;;;;;;5013185;28;20045;-85
2022/08/24 11:56:34;;;;;;;3.53;1.40;;;39.20;86.90;;;;;;5013069;28;20061;-85
2022/08/24 11:59:24;;;;;;;2.17;1.27;;;38.70;86.60;;;;;;5013455;28;20137;-85
2022/08/24 12:01:56;;;;;;;2.35;1.13;;;38.10;87.00;;;;;;5013535;28;20045;-85
2022/08/24 12:04:40;;;;;;;1.17;0.77;;;38.50;87.70;;;;;;5013435;28;20414;-85
2022/08/24 12:07:30;;;;;;;2.05;1.00;;;38.80;88.30;;;;;;5013114;28;20042;-85
2022/08/24 12:10:20;;;;;;;5.00;1.38;;;39.00;87.60;;;;;;5013091;28;20121;-85
2022/08/24 12:13:03;;;;;;;4.00;1.20;;;38.50;87.50;;;;;;5012961;28;20042;-85
2022/08/24 12:15:31;;;;;;;1.55;0.90;;;38.20;87.70;;;;;;5012988;28;20048;-84
2022/08/24 12:18:04;;;;;;;3.33;1.00;;;37.90;88.30;;;;;;5012966;28;20045;-85
2022/08/24 12:20:35;;;;;;;2.85;1.00;;;37.70;89.50;;;;;;5012882;28;20041;-85
2022/08/24 12:23:07;;;;;;;1.58;0.90;;;37.70;89.00;;;;;;5013053;28;20128;-85
2022/08/24 12:28:26;;;;;;;2.85;1.00;;;37.30;89.00;;;;;;5012092;28;20056;-84
2022/08/24 12:30:56;;;;;;;1.50;1.00;;;36.80;89.30;;;;;;5012819;28;20125;-84
2022/08/24 12:33:31;;;;;;;1.70;0.90;;;36.70;90.10;;;;;;5012539;28;20077;-84
2022/08/24 12:36:05;;;;;;;1.25;0.90;;;36.40;90.20;;;;;;5012975;28;20513;-85
2022/08/24 12:38:40;;;;;;;1.27;0.75;;;36.30;90.60;;;;;;5012819;28;20517;-84
2022/08/24 12:41:13;;;;;;;;;;;36.30;90.60;;;;;;5012857;28;20038;-84
2022/08/24 12:43:47;;;;;;;2.40;0.73;;;36.00;90.20;;;;;;5012513;28;19995;-84
2022/08/24 12:46:16;;;;;;;2.25;0.95;;;35.90;90.70;;;;;;5012373;28;20477;-84
2022/08/24 12:48:52;;;;;;;2.90;1.20;;;35.80;90.40;;;;;;5012506;28;20075;-84
2022/08/24 12:51:50;;;;;;;4.22;1.30;;;35.90;90.40;;;;;;5012489;28;20054;-84
2022/08/24 12:54:53;;;;;;;2.75;1.10;;;35.90;90.50;;;;;;5012217;28;20049;-84
2022/08/24 12:57:53;;;;;;;3.70;1.08;;;35.80;90.00;;;;;;4996548;28;20093;-84
2022/08/24 13:00:36;;;;;;;1.70;1.23;;;35.80;90.10;;;;;;5012083;28;20100;-84
2022/08/24 13:03:21;;;;;;;3.17;1.05;;;36.40;90.50;;;;;;4995715;28;20134;-84
2022/08/24 13:05:52;;;;;;;3.28;1.13;;;36.50;89.40;;;;;;5012463;28;20508;-84
2022/08/24 13:08:32;;;;;;;3.78;1.13;;;36.70;89.40;;;;;;5011789;28;20037;-85
2022/08/24 13:11:31;;;;;;;2.10;1.00;;;36.60;88.90;;;;;;5012036;28;20050;-84
2022/08/24 13:14:06;;;;;;;1.85;0.98;;;36.40;90.20;;;;;;4995701;28;20185;-84
2022/08/24 13:16:49;;;;;;;2.93;1.07;;;36.10;90.20;;;;;;5011876;28;20465;-85